Time;durP1;ratioP1;P1;durP2;ratioP2;P2;SDS_P1;SDS_P2;PMS_P1;PMS_P2;Temp;Humidity;BMP_temperature;BMP_pressure;BME280_temperature;BME280_humidity;BME280_pressure;Samples;Min_cycle;Max_cycle;Signal;HPM_P1;HPM_P2
2023/09/02 00:01:22;;;;;;;1999.90;999.90;;;;;;;15.70;100.00;94549.94;5008899;28;20207;-57
2023/09/02 00:03:47;;;;;;;1999.90;999.90;;;;;;;15.69;100.00;94553.94;5008991;28;20199;-58
2023/09/02 00:06:13;;;;;;;1999.90;999.90;;;;;;;15.66;100.00;94559.59;5008484;28;20190;-56
2023/09/02 00:08:38;;;;;;;1999.90;999.90;;;;;;;15.61;100.00;94560.19;5008487;28;20211;-54
2023/09/02 00:11:03;;;;;;;1999.90;999.90;;;;;;;15.60;100.00;94564.16;5008667;28;20195;-57
2023/09/02 00:13:29;;;;;;;1999.90;999.90;;;;;;;15.57;100.00;94568.59;5008469;28;20198;-55
2023/09/02 00:15:54;;;;;;;1999.90;999.90;;;;;;;15.53;100.00;94562.47;5008625;28;20419;-57
2023/09/02 00:18:20;;;;;;;1999.90;999.90;;;;;;;15.49;100.00;94564.59;5009160;28;20268;-57
2023/09/02 00:20:45;;;;;;;1999.90;999.90;;;;;;;15.50;100.00;94568.09;5008456;28;20211;-57
2023/09/02 00:23:10;;;;;;;1999.90;999.90;;;;;;;15.48;100.00;94568.56;5008680;28;20210;-59
2023/09/02 00:25:36;;;;;;;1999.90;999.90;;;;;;;15.45;100.00;94569.47;5008216;28;20194;-59
2023/09/02 00:28:01;;;;;;;1999.90;999.90;;;;;;;15.41;100.00;94566.09;5008463;28;20456;-57
2023/09/02 00:30:26;;;;;;;1999.90;999.90;;;;;;;15.44;100.00;94570.69;5008095;28;20198;-58
2023/09/02 00:32:52;;;;;;;1999.90;999.90;;;;;;;15.44;100.00;94567.94;5008590;28;20199;-56
2023/09/02 00:35:17;;;;;;;1999.90;999.90;;;;;;;15.40;100.00;94567.31;5008374;28;20210;-59
2023/09/02 00:37:43;;;;;;;1999.90;999.90;;;;;;;15.36;100.00;94574.94;5008115;28;20199;-57
2023/09/02 00:40:13;;;;;;;1999.90;999.90;;;;;;;15.35;100.00;94578.94;5008398;28;20219;-58
2023/09/02 00:42:40;;;;;;;1999.90;999.90;;;;;;;15.31;100.00;94566.50;5007891;28;20201;-58
2023/09/02 00:45:05;;;;;;;1999.90;999.90;;;;;;;15.27;100.00;94566.63;5008242;28;20270;-57
2023/09/02 00:47:31;;;;;;;1999.90;999.90;;;;;;;15.24;100.00;94573.06;5008009;28;20191;-56
2023/09/02 00:49:57;;;;;;;1999.90;999.90;;;;;;;15.24;100.00;94567.56;5007878;28;20261;-58
2023/09/02 00:52:23;;;;;;;1999.90;999.90;;;;;;;15.22;100.00;94564.47;5007788;28;20196;-56
2023/09/02 00:54:49;;;;;;;1999.90;999.90;;;;;;;15.22;100.00;94564.47;5008001;28;20222;-57
2023/09/02 00:57:14;;;;;;;1999.90;999.90;;;;;;;15.20;100.00;94561.44;5007747;28;20187;-58
2023/09/02 00:59:40;;;;;;;1999.90;999.90;;;;;;;15.19;100.00;94565.38;5007572;28;20299;-54
2023/09/02 01:02:08;;;;;;;1999.90;999.90;;;;;;;15.16;100.00;94563.53;5008377;28;20199;-58
2023/09/02 01:04:34;;;;;;;1999.90;999.90;;;;;;;15.14;100.00;94568.72;5007614;28;20199;-58
2023/09/02 01:07:01;;;;;;;1999.90;999.90;;;;;;;15.11;100.00;94558.63;5007675;28;20210;-58
2023/09/02 01:09:26;;;;;;;1999.90;999.90;;;;;;;15.09;100.00;94572.06;5007694;28;20203;-58
2023/09/02 01:11:52;;;;;;;1999.90;999.90;;;;;;;15.08;100.00;94565.03;5007643;28;20265;-58
2023/09/02 01:14:18;;;;;;;1999.90;999.90;;;;;;;15.08;100.00;94570.53;5007457;28;20210;-58
2023/09/02 01:16:44;;;;;;;1999.90;999.90;;;;;;;15.06;100.00;94567.47;5007726;28;20222;-57
2023/09/02 01:19:15;;;;;;;1999.90;999.90;;;;;;;15.08;100.00;94570.53;5007551;28;20500;-58
2023/09/02 01:22:28;;;;;;;1999.90;999.90;;;;;;;15.08;100.00;94575.28;5007291;28;20241;-58
2023/09/02 01:25:14;;;;;;;1999.90;999.90;;;;;;;15.07;100.00;94574.50;5002052;28;20508;-58
2023/09/02 01:27:43;;;;;;;1999.90;999.90;;;;;;;15.08;100.00;94576.03;5008008;28;20199;-56
2023/09/02 01:30:32;;;;;;;1999.90;999.90;;;;;;;15.07;100.00;94569.00;5007528;28;20206;-57
2023/09/02 01:33:02;;;;;;;1999.90;999.90;;;;;;;15.07;100.00;94563.50;5007732;28;20197;-58
2023/09/02 01:35:32;;;;;;;1999.90;999.90;;;;;;;15.06;100.00;94561.19;5007797;28;20189;-58
2023/09/02 01:37:59;;;;;;;1999.90;999.90;;;;;;;15.04;100.00;94561.66;5007584;28;20198;-59
2023/09/02 01:40:26;;;;;;;1999.90;999.90;;;;;;;15.00;100.00;94557.50;5007635;28;20210;-59
2023/09/02 01:42:56;;;;;;;1999.90;999.90;;;;;;;14.96;100.00;94557.66;5007285;28;20242;-58
2023/09/02 01:45:24;;;;;;;1999.90;999.90;;;;;;;14.92;100.00;94550.75;5007225;28;20202;-58
2023/09/02 01:47:51;;;;;;;1999.90;999.90;;;;;;;14.90;100.00;94553.94;5007554;28;20203;-56
2023/09/02 01:50:21;;;;;;;1999.90;999.90;;;;;;;14.92;100.00;94545.25;5007353;28;20274;-59
2023/09/02 01:52:48;;;;;;;1999.90;999.90;;;;;;;14.89;100.00;94546.91;5007218;28;20209;-58
2023/09/02 01:55:15;;;;;;;1999.90;999.90;;;;;;;14.88;100.00;94556.38;5007353;28;20199;-57
2023/09/02 01:57:41;;;;;;;1999.90;999.90;;;;;;;14.86;100.00;94552.56;5007510;28;20202;-58
2023/09/02 02:00:08;;;;;;;1999.90;999.90;;;;;;;14.85;100.00;94554.53;5007630;28;20215;-58
2023/09/02 02:02:36;;;;;;;1999.90;999.90;;;;;;;14.82;100.00;94558.19;5007439;28;20186;-58
2023/09/02 02:05:06;;;;;;;1999.90;999.90;;;;;;;14.81;100.00;94553.91;5011047;28;20199;-58
2023/09/02 02:07:35;;;;;;;1999.90;999.90;;;;;;;14.78;100.00;94552.06;5011266;28;20234;-58
2023/09/02 02:10:06;;;;;;;1999.90;999.90;;;;;;;14.77;100.00;94558.00;5010842;28;20214;-58
2023/09/02 02:12:31;;;;;;;1999.90;999.90;;;;;;;14.71;100.00;94557.81;5010796;28;20240;-56
2023/09/02 02:14:57;;;;;;;1999.90;999.90;;;;;;;14.67;100.00;94551.69;5010659;28;20199;-58
2023/09/02 02:17:22;;;;;;;1999.90;999.90;;;;;;;14.64;100.00;94563.56;5011091;28;20233;-58
2023/09/02 02:19:48;;;;;;;1999.90;999.90;;;;;;;14.64;100.00;94551.84;5010690;28;20218;-58
2023/09/02 02:22:13;;;;;;;1999.90;999.90;;;;;;;14.63;100.00;94553.03;5010546;28;20262;-58
2023/09/02 02:24:39;;;;;;;1999.90;999.90;;;;;;;14.57;100.00;94558.34;5010463;28;20286;-60
2023/09/02 02:27:04;;;;;;;1999.90;999.90;;;;;;;14.54;100.00;94553.75;5010895;28;20199;-58
2023/09/02 02:29:30;;;;;;;1999.90;999.90;;;;;;;14.52;100.00;94561.69;5010619;28;20187;-59
2023/09/02 02:31:55;;;;;;;1999.90;999.90;;;;;;;14.50;100.00;94564.09;5010857;28;20207;-58
2023/09/02 02:34:23;;;;;;;1999.90;999.90;;;;;;;14.49;100.00;94556.31;5010469;28;20492;-59
2023/09/02 02:36:48;;;;;;;1999.90;999.90;;;;;;;14.48;100.00;94555.53;5010215;28;20274;-58
2023/09/02 02:39:14;;;;;;;1999.90;999.90;;;;;;;14.45;100.00;94556.44;5010055;28;20210;-59
2023/09/02 02:41:39;;;;;;;1999.90;999.90;;;;;;;14.44;100.00;94546.69;5010495;28;20214;-60
2023/09/02 02:44:05;;;;;;;1999.90;999.90;;;;;;;14.42;100.00;94540.09;5010288;28;20257;-58
2023/09/02 02:46:30;;;;;;;1999.90;999.90;;;;;;;14.43;100.00;94547.91;5010231;28;20296;-58
2023/09/02 02:48:55;;;;;;;1999.90;999.90;;;;;;;14.42;100.00;94543.59;5010114;28;20337;-59
2023/09/02 02:51:21;;;;;;;1999.90;999.90;;;;;;;14.45;100.00;94545.44;5010142;28;20209;-59
2023/09/02 02:53:46;;;;;;;1999.90;999.90;;;;;;;14.42;100.00;94545.59;5010157;28;20266;-58
2023/09/02 02:56:12;;;;;;;1999.90;999.90;;;;;;;14.43;100.00;94536.91;5010241;28;20202;-57
2023/09/02 02:58:37;;;;;;;1999.90;999.90;;;;;;;14.44;100.00;94543.16;5010061;28;20198;-59
2023/09/02 03:01:11;;;;;;;1999.90;999.90;;;;;;;14.40;100.00;94540.53;5009965;28;20218;-59
2023/09/02 03:03:36;;;;;;;1999.90;999.90;;;;;;;14.40;100.00;94543.28;5010254;28;20199;-59
2023/09/02 03:06:03;;;;;;;1999.90;999.90;;;;;;;14.39;100.00;94535.50;5009786;28;20242;-59
2023/09/02 03:08:29;;;;;;;1999.90;999.90;;;;;;;14.38;100.00;94540.22;5009961;28;20453;-58
2023/09/02 03:10:59;;;;;;;1999.90;999.90;;;;;;;14.38;100.00;94540.22;5009382;28;20398;-58
2023/09/02 03:13:25;;;;;;;1999.90;999.90;;;;;;;14.36;100.00;94548.16;5009848;28;20211;-58
2023/09/02 03:15:53;;;;;;;1999.90;999.90;;;;;;;14.34;100.00;94545.06;5009566;28;20263;-58
2023/09/02 03:18:19;;;;;;;1999.90;999.90;;;;;;;14.31;100.00;94551.47;5009511;28;20199;-58
2023/09/02 03:20:44;;;;;;;1999.90;999.90;;;;;;;14.30;100.00;94552.69;5009489;28;20213;-58
2023/09/02 03:23:09;;;;;;;1999.90;999.90;;;;;;;14.30;100.00;94552.69;5009341;28;20207;-58
2023/09/02 03:25:35;;;;;;;1999.90;999.90;;;;;;;14.31;100.00;94551.47;5009583;28;20266;-59
2023/09/02 03:28:00;;;;;;;1999.90;999.90;;;;;;;14.32;100.00;94547.50;5009291;28;20183;-59
2023/09/02 03:30:26;;;;;;;1999.90;999.90;;;;;;;14.30;100.00;94555.44;5009873;28;20199;-58
2023/09/02 03:32:51;;;;;;;1999.90;999.90;;;;;;;14.28;100.00;94552.34;5009612;28;20191;-57
2023/09/02 03:35:16;;;;;;;1999.90;999.90;;;;;;;14.25;100.00;94547.78;5009191;28;20221;-57
2023/09/02 03:37:45;;;;;;;1999.90;999.90;;;;;;;14.22;100.00;94548.66;5009591;28;20266;-58
2023/09/02 03:40:11;;;;;;;1999.90;999.90;;;;;;;14.18;100.00;94553.47;5009531;28;20237;-59
2023/09/02 03:42:36;;;;;;;1999.90;999.90;;;;;;;14.17;100.00;94562.91;5009484;28;20363;-59
2023/09/02 03:45:03;;;;;;;1999.90;999.90;;;;;;;14.15;100.00;94559.88;5009180;28;20202;-58
2023/09/02 03:47:32;;;;;;;1999.90;999.90;;;;;;;14.14;100.00;94552.84;5009365;28;20215;-59
2023/09/02 03:49:58;;;;;;;1999.90;999.90;;;;;;;14.14;100.00;94543.84;5009199;28;20203;-57
2023/09/02 03:52:24;;;;;;;1999.90;999.90;;;;;;;14.12;100.00;94552.50;5008981;28;20201;-58
2023/09/02 03:54:50;;;;;;;1999.90;999.90;;;;;;;14.09;100.00;94541.66;5009039;28;20199;-60
2023/09/02 03:57:15;;;;;;;1999.90;999.90;;;;;;;14.07;100.00;94547.59;5008810;28;20183;-59
2023/09/02 03:59:41;;;;;;;1999.90;999.90;;;;;;;14.05;100.00;94550.00;5009023;28;20535;-60
2023/09/02 04:02:06;;;;;;;1999.90;999.90;;;;;;;14.03;100.00;94552.47;5008697;28;20376;-57
2023/09/02 04:04:32;;;;;;;1999.90;999.90;;;;;;;14.00;100.00;94558.81;5008678;28;20210;-58
2023/09/02 04:06:58;;;;;;;1999.90;999.90;;;;;;;13.97;100.00;94562.47;5008840;28;20202;-58
2023/09/02 04:09:23;;;;;;;1999.90;999.90;;;;;;;13.97;100.00;94554.22;5008526;28;20207;-59
2023/09/02 04:11:48;;;;;;;1999.90;999.90;;;;;;;13.98;100.00;94555.00;5008477;28;20233;-58
2023/09/02 04:14:14;;;;;;;1999.90;999.90;;;;;;;13.94;100.00;94563.34;5008502;28;20199;-59
2023/09/02 04:16:39;;;;;;;1999.90;999.90;;;;;;;13.92;100.00;94557.53;5008108;28;20198;-56
2023/09/02 04:19:04;;;;;;;1999.90;999.90;;;;;;;13.90;100.00;94575.66;5008898;28;20203;-59
2023/09/02 04:21:31;;;;;;;1999.90;999.90;;;;;;;13.90;100.00;94565.44;5008779;28;20402;-58
2023/09/02 04:23:56;;;;;;;1999.90;999.90;;;;;;;13.92;100.00;94568.53;5008439;28;20256;-58
2023/09/02 04:26:22;;;;;;;1999.90;999.90;;;;;;;13.91;100.00;94571.72;5007147;28;20199;-58
2023/09/02 04:28:48;;;;;;;1999.90;999.90;;;;;;;13.86;100.00;94575.78;5008941;28;20224;-57
2023/09/02 04:31:13;;;;;;;1999.90;999.90;;;;;;;13.82;100.00;94575.13;5008710;28;20199;-58
2023/09/02 04:33:39;;;;;;;1999.90;999.90;;;;;;;13.82;100.00;94591.59;5008030;28;20195;-58
2023/09/02 04:36:05;;;;;;;1999.90;999.90;;;;;;;13.87;100.00;94585.53;5008035;28;20199;-58
2023/09/02 04:38:31;;;;;;;1999.90;999.90;;;;;;;13.91;100.00;94582.69;5008036;28;20223;-58
2023/09/02 04:40:56;;;;;;;1999.90;999.90;;;;;;;13.96;100.00;94574.66;5007889;28;20261;-59
2023/09/02 04:43:22;;;;;;;1999.90;999.90;;;;;;;13.99;100.00;94576.50;5008001;28;20245;-59
2023/09/02 04:45:48;;;;;;;1999.90;999.90;;;;;;;14.01;100.00;94576.81;5008150;28;20202;-59
2023/09/02 04:48:15;;;;;;;1999.90;999.90;;;;;;;14.07;100.00;94571.53;5007999;28;20218;-58
2023/09/02 04:50:41;;;;;;;1999.90;999.90;;;;;;;14.13;100.00;94573.25;5008048;28;20197;-59
2023/09/02 04:53:07;;;;;;;1999.90;999.90;;;;;;;14.33;100.00;94570.25;5007918;28;20187;-58
2023/09/02 04:55:33;;;;;;;1999.90;999.90;;;;;;;14.49;100.00;94573.56;5007951;28;20210;-58
2023/09/02 04:57:59;;;;;;;1999.90;999.90;;;;;;;14.71;100.00;94568.06;5008228;28;20194;-58
2023/09/02 05:00:25;;;;;;;1999.90;999.90;;;;;;;14.99;100.00;94576.00;5007955;28;20197;-58
2023/09/02 05:02:51;;;;;;;1999.90;999.90;;;;;;;15.41;100.00;94582.59;5007935;28;20245;-58
2023/09/02 05:05:18;;;;;;;1999.90;999.90;;;;;;;15.77;100.00;94615.00;5008179;28;20274;-58
2023/09/02 05:07:44;;;;;;;1999.90;999.90;;;;;;;16.13;100.00;94687.44;5007755;28;20202;-56
2023/09/02 05:10:11;;;;;;;1999.90;999.90;;;;;;;16.49;100.00;94797.00;5007924;28;20190;-58
2023/09/02 05:12:37;;;;;;;1999.90;999.90;;;;;;;16.94;100.00;94942.53;5007656;28;20194;-58
2023/09/02 05:15:05;;;;;;;1999.90;999.90;;;;;;;17.30;100.00;95108.28;5007462;28;20269;-58
2023/09/02 05:17:32;;;;;;;1999.90;999.90;;;;;;;17.67;100.00;95261.91;5007646;28;20197;-58
2023/09/02 05:19:58;;;;;;;1999.90;999.90;;;;;;;18.00;100.00;95359.72;5007485;28;20274;-58
2023/09/02 05:22:23;;;;;;;1999.90;999.90;;;;;;;18.33;100.00;95438.25;5007975;28;20194;-59
2023/09/02 05:24:48;;;;;;;1999.90;999.90;;;;;;;18.68;100.00;95492.25;5007805;28;20203;-59
2023/09/02 05:27:14;;;;;;;1999.90;999.90;;;;;;;19.09;100.00;95527.84;5007424;28;20195;-59
2023/09/02 05:29:39;;;;;;;1999.90;999.90;;;;;;;19.35;100.00;95545.81;5007925;28;20242;-58
2023/09/02 05:32:05;;;;;;;1999.90;999.90;;;;;;;19.71;100.00;95559.81;5007695;28;20195;-58
2023/09/02 05:34:30;;;;;;;1999.90;999.90;;;;;;;19.84;100.00;95579.84;5007915;28;20194;-59
2023/09/02 05:36:56;;;;;;;1999.90;999.90;;;;;;;20.19;100.00;95586.72;5008238;28;20199;-58
2023/09/02 05:39:21;;;;;;;1999.90;999.90;;;;;;;20.32;100.00;95601.22;5011568;28;20226;-59
2023/09/02 05:41:47;;;;;;;1999.90;999.90;;;;;;;20.55;100.00;95608.94;5011598;28;20307;-58
2023/09/02 05:44:12;;;;;;;1999.90;999.90;;;;;;;20.79;100.00;95615.41;5011321;28;20195;-58
2023/09/02 05:46:38;;;;;;;1999.90;999.90;;;;;;;20.88;100.00;95615.41;5011375;28;20198;-59
2023/09/02 05:49:03;;;;;;;1999.90;999.90;;;;;;;21.26;100.00;95617.66;5011189;28;20222;-59
2023/09/02 05:51:29;;;;;;;1999.90;999.90;;;;;;;21.65;100.00;95625.75;5011101;28;20203;-59
2023/09/02 05:53:55;;;;;;;1999.90;999.90;;;;;;;21.93;100.00;95629.97;5011134;28;20221;-59
2023/09/02 05:56:21;;;;;;;1999.90;999.90;;;;;;;22.24;100.00;95629.66;5011797;28;20236;-58
2023/09/02 05:58:46;;;;;;;1999.90;999.90;;;;;;;22.36;100.00;95629.41;5010835;28;20274;-59
2023/09/02 06:01:11;;;;;;;1999.90;999.90;;;;;;;22.28;100.00;95642.16;5011501;28;20230;-59
2023/09/02 06:03:37;;;;;;;1999.90;999.90;;;;;;;22.28;100.00;95646.94;5011441;28;20206;-58
2023/09/02 06:06:12;;;;;;;1999.90;999.90;;;;;;;22.42;100.00;95635.88;5011225;28;20229;-59
2023/09/02 06:08:37;;;;;;;1999.90;999.90;;;;;;;22.87;100.00;95647.94;5010806;28;20199;-59
2023/09/02 06:11:04;;;;;;;1999.90;999.90;;;;;;;23.24;100.00;95643.63;5010871;28;20205;-58
2023/09/02 06:13:30;;;;;;;1999.90;999.90;;;;;;;23.83;100.00;95645.91;5010984;28;20211;-59
2023/09/02 06:16:03;;;;;;;1999.90;999.90;;;;;;;24.66;100.00;95645.13;5010749;28;20275;-59
2023/09/02 06:18:29;;;;;;;1999.90;999.90;;;;;;;24.89;100.00;95652.53;5010684;28;20222;-58
2023/09/02 06:20:55;;;;;;;1999.90;999.90;;;;;;;25.66;100.00;95647.00;5010721;28;20219;-57
2023/09/02 06:23:21;;;;;;;1999.90;999.90;;;;;;;26.02;100.00;95651.91;5010481;28;20210;-59
2023/09/02 06:25:57;;;;;;;1999.90;999.90;;;;;;;26.37;100.00;95651.66;5010342;28;20191;-59
2023/09/02 06:28:23;;;;;;;1999.90;999.90;;;;;;;26.08;100.00;95649.94;5010826;28;20195;-58
2023/09/02 06:30:48;;;;;;;1999.90;999.90;;;;;;;26.21;100.00;95655.88;5010459;28;20197;-59
2023/09/02 06:33:15;;;;;;;1999.90;999.90;;;;;;;26.19;100.00;95650.00;5010486;28;20229;-57
2023/09/02 06:35:40;;;;;;;1999.90;999.90;;;;;;;26.34;100.00;95649.84;5010887;28;20201;-58
2023/09/02 06:38:06;;;;;;;1999.90;999.90;;;;;;;27.35;100.00;95656.94;5010246;28;20199;-59
2023/09/02 06:40:32;;;;;;;1999.90;999.90;;;;;;;27.51;100.00;95656.25;5010319;28;20203;-60
2023/09/02 06:42:57;;;;;;;1999.90;999.90;;;;;;;27.07;100.00;95644.88;5010325;28;20198;-59
2023/09/02 06:45:25;;;;;;;1999.90;999.90;;;;;;;27.14;100.00;95650.00;5010341;28;20258;-60
2023/09/02 06:47:50;;;;;;;1999.90;999.90;;;;;;;27.26;100.00;95650.81;5010074;28;20292;-59
2023/09/02 06:50:16;;;;;;;1999.90;999.90;;;;;;;27.66;100.00;95653.97;5009238;28;20202;-59
2023/09/02 06:52:41;;;;;;;1999.90;999.90;;;;;;;27.90;100.00;95654.25;5010434;28;20343;-61
2023/09/02 06:55:07;;;;;;;1999.90;999.90;;;;;;;28.22;100.00;95663.94;5010016;28;20190;-61
2023/09/02 06:57:32;;;;;;;1999.90;999.90;;;;;;;28.66;100.00;95657.50;5010400;28;20210;-61
2023/09/02 06:59:57;;;;;;;1999.90;999.90;;;;;;;29.03;100.00;95668.41;5010229;28;20215;-61
2023/09/02 07:02:23;;;;;;;1999.90;999.90;;;;;;;29.01;100.00;95670.94;5009642;28;20213;-60
2023/09/02 07:04:49;;;;;;;1999.90;999.90;;;;;;;29.27;100.00;95671.34;5009862;28;20191;-58
2023/09/02 07:07:14;;;;;;;1999.90;999.90;;;;;;;29.82;100.00;95671.09;5009908;28;20203;-57
2023/09/02 07:09:40;;;;;;;1999.90;999.90;;;;;;;29.91;100.00;95670.75;5009820;28;20263;-58
2023/09/02 07:12:05;;;;;;;1999.90;999.90;;;;;;;30.44;100.00;95670.06;5009724;28;20265;-58
2023/09/02 07:14:30;;;;;;;1999.90;999.90;;;;;;;30.40;100.00;95670.34;5009570;28;20222;-57
2023/09/02 07:16:56;;;;;;;1999.90;999.90;;;;;;;30.95;100.00;95666.19;5009724;28;20195;-58
2023/09/02 07:19:21;;;;;;;1999.90;999.90;;;;;;;30.97;100.00;95661.56;5009717;28;20194;-57
2023/09/02 07:21:46;;;;;;;1999.90;999.90;;;;;;;31.24;95.43;95662.50;5009736;28;20203;-57
2023/09/02 07:24:12;;;;;;;1999.90;999.90;;;;;;;31.10;98.44;95652.44;5009578;28;20203;-57
2023/09/02 07:26:37;;;;;;;1999.90;999.90;;;;;;;31.56;95.44;95660.56;5009565;28;20198;-57
2023/09/02 07:29:03;;;;;;;1999.90;999.90;;;;;;;31.96;88.87;95659.47;5009279;28;20273;-57
2023/09/02 07:31:28;;;;;;;1999.90;999.90;;;;;;;32.04;87.37;95663.19;5009311;28;20262;-57
2023/09/02 07:33:54;;;;;;;1999.90;999.90;;;;;;;32.70;83.14;95675.47;5009609;28;20202;-58
2023/09/02 07:36:19;;;;;;;1999.90;999.90;;;;;;;32.74;84.92;95673.84;5009663;28;20206;-56
2023/09/02 07:38:44;;;;;;;1999.90;999.90;;;;;;;33.37;78.57;95676.50;5009481;28;20199;-55
2023/09/02 07:41:10;;;;;;;1999.90;999.90;;;;;;;33.76;77.13;95676.41;5009016;28;20206;-53
2023/09/02 07:43:35;;;;;;;1999.90;999.90;;;;;;;33.46;75.61;95672.44;5009298;28;20207;-53
2023/09/02 07:46:01;;;;;;;1999.90;999.90;;;;;;;33.83;75.18;95678.59;5008946;28;20223;-55
2023/09/02 07:48:26;;;;;;;1999.90;999.90;;;;;;;33.92;69.66;95682.28;5009186;28;20199;-52
2023/09/02 07:50:51;;;;;;;1999.90;999.90;;;;;;;33.61;76.55;95681.16;5008954;28;20191;-56
2023/09/02 07:53:17;;;;;;;1999.90;999.90;;;;;;;33.64;74.46;95683.66;5009609;28;20274;-56
2023/09/02 07:55:42;;;;;;;1999.90;999.90;;;;;;;34.56;66.06;95681.22;5008757;28;20187;-56
2023/09/02 07:58:07;;;;;;;1999.90;999.90;;;;;;;34.33;67.06;95685.19;5009059;28;20179;-56
2023/09/02 08:00:34;;;;;;;1999.90;999.90;;;;;;;34.19;70.25;95683.72;5009401;28;20214;-56
2023/09/02 08:02:59;;;;;;;1999.90;999.90;;;;;;;34.50;67.73;95683.47;5008847;28;20230;-56
2023/09/02 08:05:25;;;;;;;1999.90;999.90;;;;;;;34.85;67.77;95685.66;5008489;28;20203;-55
2023/09/02 08:07:50;;;;;;;1999.90;999.90;;;;;;;34.87;66.25;95682.25;5008395;28;20196;-56
2023/09/02 08:10:16;;;;;;;1999.90;999.90;;;;;;;35.36;61.89;95688.66;5008925;28;20195;-56
2023/09/02 08:12:42;;;;;;;1999.90;999.90;;;;;;;35.49;61.97;95692.13;5008528;28;20258;-55
2023/09/02 08:15:12;;;;;;;1999.90;999.90;;;;;;;36.04;58.53;95689.69;5008452;28;20205;-55
2023/09/02 08:17:38;;;;;;;1999.90;999.90;;;;;;;35.84;59.85;95690.59;5008509;28;20195;-54
2023/09/02 08:20:05;;;;;;;1999.90;999.90;;;;;;;35.10;61.72;95688.88;5008640;28;20234;-56
2023/09/02 08:22:31;;;;;;;1999.90;999.90;;;;;;;35.46;62.40;95695.31;5008384;28;20201;-53
2023/09/02 08:24:56;;;;;;;1999.90;999.90;;;;;;;35.35;60.74;95698.50;5008473;28;20199;-56
2023/09/02 08:27:21;;;;;;;1999.90;999.90;;;;;;;35.14;63.15;95689.25;5008595;28;20185;-54
2023/09/02 08:29:47;;;;;;;1999.90;999.90;;;;;;;35.69;62.65;95693.38;5008250;28;20198;-56
2023/09/02 08:32:12;;;;;;;1999.90;999.90;;;;;;;35.51;59.50;95700.09;5008625;28;20211;-56
2023/09/02 08:34:37;;;;;;;1999.90;999.90;;;;;;;34.61;62.34;95699.44;5008067;28;20202;-55
2023/09/02 08:37:03;;;;;;;1999.90;999.90;;;;;;;34.25;66.92;95701.34;5008435;28;20274;-56
2023/09/02 08:39:29;;;;;;;1999.90;999.90;;;;;;;34.65;62.53;95694.16;5007759;28;20202;-57
2023/09/02 08:41:55;;;;;;;1999.90;999.90;;;;;;;34.48;62.21;95691.75;5008042;28;20198;-56
2023/09/02 08:44:22;;;;;;;1999.90;999.90;;;;;;;34.58;62.55;95701.31;5008430;28;20195;-58
2023/09/02 08:46:50;;;;;;;1999.90;999.90;;;;;;;34.88;62.98;95701.56;5008152;28;20218;-56
2023/09/02 08:49:16;;;;;;;1999.90;999.90;;;;;;;33.88;62.32;95704.53;5008072;28;20269;-56
2023/09/02 08:51:42;;;;;;;1999.90;999.90;;;;;;;33.77;65.19;95709.13;5007917;28;20195;-56
2023/09/02 08:54:10;;;;;;;1999.90;999.90;;;;;;;34.04;66.29;95709.09;5008574;28;20195;-57
2023/09/02 08:56:40;;;;;;;1999.90;999.90;;;;;;;33.93;66.12;95715.00;5007649;28;20264;-56
2023/09/02 08:59:05;;;;;;;1999.90;999.90;;;;;;;34.62;66.98;95713.06;5008226;28;20296;-56
2023/09/02 09:01:31;;;;;;;1999.90;999.90;;;;;;;35.15;62.29;95719.19;5008011;28;20207;-57
2023/09/02 09:03:57;;;;;;;1999.90;999.90;;;;;;;34.95;60.60;95717.16;5008015;28;20199;-57
2023/09/02 09:06:24;;;;;;;1999.90;999.90;;;;;;;34.75;60.99;95721.53;5007442;28;20294;-56
2023/09/02 09:08:52;;;;;;;1999.90;999.90;;;;;;;34.77;62.11;95723.81;5007505;28;20202;-57
2023/09/02 09:11:18;;;;;;;1999.90;999.90;;;;;;;34.90;62.27;95721.69;5007448;28;20246;-56
2023/09/02 09:13:46;;;;;;;1999.90;999.90;;;;;;;34.59;64.71;95717.03;5007016;28;20199;-57
2023/09/02 09:16:25;;;;;;;1999.90;999.90;;;;;;;34.56;63.60;95717.38;5007495;28;20191;-56
2023/09/02 09:18:51;;;;;;;1999.90;999.90;;;;;;;34.68;64.76;95722.22;5007558;28;20222;-56
2023/09/02 09:21:17;;;;;;;1999.90;999.90;;;;;;;35.19;61.81;95722.44;5007810;28;20210;-56
2023/09/02 09:23:42;;;;;;;1999.90;999.90;;;;;;;34.79;64.55;95718.31;5007577;28;20190;-54
2023/09/02 09:26:10;;;;;;;1999.90;999.90;;;;;;;34.66;61.59;95718.44;5007574;28;20210;-58
2023/09/02 09:28:50;;;;;;;1999.90;999.90;;;;;;;34.93;62.43;95716.94;5008250;28;20191;-57
2023/09/02 09:31:16;;;;;;;1999.90;999.90;;;;;;;34.53;63.83;95712.81;5008018;28;20206;-55
2023/09/02 09:33:53;;;;;;;1999.90;999.90;;;;;;;34.37;64.71;95719.66;5007060;28;20187;-55
2023/09/02 09:36:21;;;;;;;1999.90;999.90;;;;;;;34.18;65.63;95719.81;5007863;28;20217;-56
2023/09/02 09:38:47;;;;;;;1999.90;999.90;;;;;;;34.36;63.33;95718.13;5008107;28;20198;-57
2023/09/02 09:41:12;;;;;;;1999.90;999.90;;;;;;;35.17;61.89;95714.47;5007376;28;20217;-56
2023/09/02 09:43:38;;;;;;;1999.90;999.90;;;;;;;35.95;60.10;95715.88;5007531;28;20194;-56
2023/09/02 09:46:03;;;;;;;1999.90;999.90;;;;;;;35.33;63.52;95709.69;5007686;28;20278;-57
2023/09/02 09:48:29;;;;;;;1999.90;999.90;;;;;;;35.67;60.79;95713.84;5007423;28;20176;-56
2023/09/02 09:50:55;;;;;;;1999.90;999.90;;;;;;;35.66;59.53;95717.22;5007737;28;20194;-56
2023/09/02 09:53:20;;;;;;;1999.90;999.90;;;;;;;35.76;60.36;95715.41;5007981;28;20218;-55
2023/09/02 09:55:46;;;;;;;1999.90;999.90;;;;;;;35.66;57.70;95705.88;5007519;28;20265;-57
2023/09/02 09:58:11;;;;;;;1999.90;999.90;;;;;;;35.36;58.30;95717.09;5007150;28;20199;-57
2023/09/02 10:00:37;;;;;;;1999.90;999.90;;;;;;;35.92;55.19;95705.59;5007003;28;20219;-56
2023/09/02 10:03:03;;;;;;;1999.90;999.90;;;;;;;35.17;54.33;95710.88;5007214;28;20197;-55
2023/09/02 10:05:30;;;;;;;1999.90;999.90;;;;;;;34.97;57.36;95703.16;5007287;28;20199;-56
2023/09/02 10:08:03;;;;;;;1999.90;999.90;;;;;;;35.56;57.90;95699.19;5007022;28;20219;-56
2023/09/02 10:10:33;;;;;;;1999.90;999.90;;;;;;;35.82;56.99;95708.22;5006940;28;20210;-57
2023/09/02 10:13:00;;;;;;;1999.90;999.90;;;;;;;35.67;54.74;95704.53;5006964;28;20191;-56
2023/09/02 10:15:26;;;;;;;1999.90;999.90;;;;;;;34.92;56.66;95696.31;5006686;28;20190;-57
2023/09/02 10:17:57;;;;;;;1999.90;999.90;;;;;;;35.93;56.67;95690.06;5007441;28;20195;-54
2023/09/02 10:20:26;;;;;;;1999.90;999.90;;;;;;;36.06;54.58;95695.59;5007290;28;20217;-57
2023/09/02 10:22:53;;;;;;;1999.90;999.90;;;;;;;36.19;51.72;95695.44;5006683;28;20211;-56
2023/09/02 10:25:24;;;;;;;1999.90;999.90;;;;;;;36.50;50.90;95703.50;5009378;28;20199;-56
2023/09/02 10:27:59;;;;;;;1999.90;999.90;;;;;;;35.39;54.10;95710.28;5011031;28;20222;-58
2023/09/02 10:30:29;;;;;;;1999.90;999.90;;;;;;;35.56;56.44;95707.69;5010826;28;20206;-56
2023/09/02 10:33:02;;;;;;;1999.90;999.90;;;;;;;35.49;56.16;95697.06;5010266;28;20222;-56
2023/09/02 10:35:30;;;;;;;1999.90;999.90;;;;;;;35.95;56.24;95704.50;5010603;28;20187;-56
2023/09/02 10:37:58;;;;;;;1999.90;999.90;;;;;;;36.35;51.87;95699.88;5010310;28;20206;-55
2023/09/02 10:40:25;;;;;;;1999.90;999.90;;;;;;;35.16;54.54;95707.28;5010347;28;20211;-57
2023/09/02 10:42:54;;;;;;;1999.90;999.90;;;;;;;35.10;55.71;95694.53;5010383;28;20191;-56
2023/09/02 10:45:20;;;;;;;1999.90;999.90;;;;;;;35.28;55.95;95696.38;5010522;28;20195;-55
2023/09/02 10:47:46;;;;;;;1999.90;999.90;;;;;;;34.37;57.29;95691.28;5010259;28;20191;-56